createdAt,value
2018-02-19T00:00:33.153Z,1.81
2018-02-19T00:01:33.165Z,1.76
2018-02-19T00:02:33.163Z,1.70
2018-02-19T00:03:54.165Z,1.69
2018-02-19T00:04:33.156Z,1.73
2018-02-19T00:05:33.136Z,1.80
2018-02-19T00:06:33.151Z,1.83
2018-02-19T00:07:33.132Z,1.81
2018-02-19T00:08:33.134Z,1.84
2018-02-19T00:09:54.137Z,1.83
2018-02-19T00:10:33.133Z,1.87
2018-02-19T00:11:33.127Z,1.84
2018-02-19T00:12:33.137Z,1.80
2018-02-19T00:13:33.904Z,1.84
2018-02-19T00:14:33.145Z,1.91
2018-02-19T00:15:54.126Z,1.91
2018-02-19T00:16:33.399Z,1.90
2018-02-19T00:17:33.111Z,1.90
2018-02-19T00:18:33.108Z,2.03
2018-02-19T00:19:33.130Z,2.07
2018-02-19T00:20:33.114Z,2.12
2018-02-19T00:21:54.105Z,2.09
2018-02-19T00:22:33.095Z,2.09
2018-02-19T00:23:33.405Z,2.07
2018-02-19T00:24:33.124Z,2.18
2018-02-19T00:25:33.097Z,2.21
2018-02-19T00:26:33.089Z,2.18
2018-02-19T00:27:54.094Z,2.23
2018-02-19T00:28:33.959Z,2.27
2018-02-19T00:29:33.088Z,2.25
2018-02-19T00:30:33.088Z,2.38
2018-02-19T00:31:33.087Z,2.39
2018-02-19T00:32:34.490Z,2.24
2018-02-19T00:33:54.087Z,2.28
2018-02-19T00:34:33.092Z,2.23
2018-02-19T00:35:33.182Z,2.28
2018-02-19T00:36:33.071Z,2.23
2018-02-19T00:37:33.083Z,2.18
2018-02-19T00:38:33.064Z,2.23
2018-02-19T00:39:54.063Z,2.18
2018-02-19T00:40:33.065Z,2.17
2018-02-19T00:41:33.063Z,2.23
2018-02-19T00:42:33.055Z,2.21
2018-02-19T00:43:33.060Z,2.27
2018-02-19T00:44:33.081Z,2.17
2018-02-19T00:45:54.068Z,2.18
2018-02-19T00:46:33.057Z,2.18
2018-02-19T00:47:33.043Z,2.23
2018-02-19T00:48:33.055Z,2.25
2018-02-19T00:49:33.055Z,2.21
2018-02-19T00:50:33.962Z,2.14
2018-02-19T00:51:54.054Z,2.18
2018-02-19T00:52:33.882Z,2.23
2018-02-19T00:53:33.042Z,2.21
2018-02-19T00:54:33.500Z,2.35
2018-02-19T00:55:33.039Z,2.28
2018-02-19T00:56:33.046Z,2.36
2018-02-19T00:57:54.037Z,2.36
2018-02-19T00:58:33.034Z,2.38
2018-02-19T00:59:33.018Z,2.35
2018-02-19T01:00:33.030Z,2.38
2018-02-19T01:01:33.039Z,2.41
2018-02-19T01:02:33.014Z,2.41
2018-02-19T01:03:54.032Z,2.39
2018-02-19T01:04:33.009Z,2.41
2018-02-19T01:05:33.812Z,2.38
2018-02-19T01:06:33.009Z,2.49
2018-02-19T01:07:34.866Z,2.48
2018-02-19T01:08:34.703Z,2.48
2018-02-19T01:09:54.144Z,2.41
2018-02-19T01:10:32.993Z,2.34
2018-02-19T01:11:32.987Z,2.28
2018-02-19T01:12:32.985Z,2.24
2018-02-19T01:13:32.999Z,2.43
2018-02-19T01:14:32.984Z,2.38
2018-02-19T01:15:53.984Z,2.43
2018-02-19T01:16:34.077Z,2.52
2018-02-19T01:17:32.982Z,2.49
2018-02-19T01:18:32.985Z,2.54
2018-02-19T01:19:33.083Z,2.59
2018-02-19T01:20:32.969Z,2.57
2018-02-19T01:21:53.976Z,2.63
2018-02-19T01:22:32.971Z,2.64
2018-02-19T01:23:32.964Z,2.60
2018-02-19T01:24:32.970Z,2.56
2018-02-19T01:25:32.960Z,2.61
2018-02-19T01:26:34.484Z,2.59
2018-02-19T01:27:53.965Z,2.46
2018-02-19T01:28:33.716Z,2.43
2018-02-19T01:29:33.762Z,2.42
2018-02-19T01:30:32.947Z,2.52
2018-02-19T01:31:32.972Z,2.42
2018-02-19T01:32:33.004Z,2.42
2018-02-19T01:33:53.945Z,2.56
2018-02-19T01:34:32.952Z,2.52
2018-02-19T01:35:32.938Z,2.52
2018-02-19T01:36:33.021Z,2.60
2018-02-19T01:37:33.023Z,2.54
2018-02-19T01:38:32.934Z,2.59
2018-02-19T01:39:53.941Z,2.54
2018-02-19T01:40:33.320Z,2.57
2018-02-19T01:41:32.954Z,2.56
2018-02-19T01:42:32.921Z,2.61
2018-02-19T01:43:32.912Z,2.52
2018-02-19T01:44:32.924Z,2.63
2018-02-19T01:45:53.918Z,2.54
2018-02-19T01:46:32.909Z,2.53
2018-02-19T01:47:32.922Z,2.54
2018-02-19T01:48:32.900Z,2.56
2018-02-19T01:49:32.900Z,2.56
2018-02-19T01:50:32.912Z,2.46
2018-02-19T01:51:54.414Z,2.49
2018-02-19T01:52:32.898Z,2.48
2018-02-19T01:53:32.893Z,2.57
2018-02-19T01:54:32.900Z,2.54
2018-02-19T01:55:32.889Z,2.60
2018-02-19T01:56:32.887Z,2.60
2018-02-19T01:57:53.894Z,2.64
2018-02-19T01:58:32.878Z,2.60
2018-02-19T01:59:32.887Z,2.60
2018-02-19T02:00:32.868Z,2.56
2018-02-19T02:01:34.006Z,2.59
2018-02-19T02:02:32.887Z,2.48
2018-02-19T02:03:53.924Z,2.49
2018-02-19T02:04:32.863Z,2.53
2018-02-19T02:05:32.862Z,2.48
2018-02-19T02:06:32.856Z,2.52
2018-02-19T02:07:33.324Z,2.39
2018-02-19T02:08:32.856Z,2.48
2018-02-19T02:09:53.852Z,2.39
2018-02-19T02:10:32.843Z,2.38
2018-02-19T02:11:32.845Z,2.41
2018-02-19T02:12:32.850Z,2.36
2018-02-19T02:13:32.856Z,2.41
2018-02-19T02:14:33.473Z,2.41
2018-02-19T02:15:53.846Z,2.43
2018-02-19T02:16:32.936Z,2.25
2018-02-19T02:17:32.838Z,2.20
2018-02-19T02:18:32.854Z,2.25
2018-02-19T02:19:32.981Z,2.27
2018-02-19T02:20:33.041Z,2.27
2018-02-19T02:21:53.839Z,2.28
2018-02-19T02:22:32.840Z,2.23
2018-02-19T02:23:32.824Z,2.21
2018-02-19T02:24:32.840Z,2.18
2018-02-19T02:25:32.812Z,2.23
2018-02-19T02:26:32.824Z,2.17
2018-02-19T02:27:53.811Z,2.10
2018-02-19T02:28:32.834Z,2.14
2018-02-19T02:29:32.807Z,2.07
2018-02-19T02:30:32.808Z,2.07
2018-02-19T02:31:32.801Z,2.10
2018-02-19T02:32:32.810Z,2.09
2018-02-19T02:33:53.803Z,2.16
2018-02-19T02:34:32.823Z,2.09
2018-02-19T02:35:32.786Z,2.02
2018-02-19T02:36:32.791Z,1.98
2018-02-19T02:37:32.876Z,1.84
2018-02-19T02:38:32.823Z,1.84
2018-02-19T02:39:53.784Z,1.83
2018-02-19T02:40:32.781Z,1.73
2018-02-19T02:41:32.782Z,1.60
2018-02-19T02:42:32.778Z,1.59
2018-02-19T02:43:32.775Z,1.66
2018-02-19T02:44:32.779Z,1.65
2018-02-19T02:45:53.785Z,1.63
2018-02-19T02:46:32.772Z,1.59
2018-02-19T02:47:32.764Z,1.54
2018-02-19T02:48:32.774Z,1.62
2018-02-19T02:49:32.759Z,1.58
2018-02-19T02:50:32.773Z,1.63
2018-02-19T02:51:53.770Z,1.51
2018-02-19T02:52:32.743Z,1.52
2018-02-19T02:53:32.747Z,1.65
2018-02-19T02:54:32.760Z,1.58
2018-02-19T02:55:32.748Z,1.58
2018-02-19T02:56:32.757Z,1.54
2018-02-19T02:57:53.749Z,1.60
2018-02-19T02:58:32.739Z,1.51
2018-02-19T02:59:32.747Z,1.58
2018-02-19T03:00:32.729Z,1.45
2018-02-19T03:01:32.739Z,1.44
2018-02-19T03:02:32.724Z,1.44
2018-02-19T03:03:53.748Z,1.42
2018-02-19T03:04:32.732Z,1.58
2018-02-19T03:05:32.750Z,1.52
2018-02-19T03:06:32.744Z,1.45
2018-02-19T03:07:32.778Z,1.51
2018-02-19T03:08:32.720Z,1.45
2018-02-19T03:09:53.734Z,1.59
2018-02-19T03:10:32.714Z,1.54
2018-02-19T03:11:32.697Z,1.54
2018-02-19T03:12:32.708Z,1.60
2018-02-19T03:13:32.705Z,1.68
2018-02-19T03:14:32.707Z,1.69
2018-02-19T03:15:53.710Z,1.84
2018-02-19T03:16:32.690Z,1.80
2018-02-19T03:17:32.697Z,1.95
2018-02-19T03:18:32.697Z,2.05
2018-02-19T03:19:32.684Z,2.09
2018-02-19T03:20:32.683Z,2.10
2018-02-19T03:21:53.693Z,1.95
2018-02-19T03:22:32.690Z,1.95
2018-02-19T03:23:32.685Z,2.06
2018-02-19T03:24:32.729Z,2.09
2018-02-19T03:25:32.688Z,2.12
2018-02-19T03:26:32.676Z,2.07
2018-02-19T03:27:53.673Z,2.07
2018-02-19T03:28:32.666Z,2.18
2018-02-19T03:29:32.660Z,2.25
2018-02-19T03:30:32.682Z,2.27
2018-02-19T03:31:32.676Z,2.20
2018-02-19T03:32:32.665Z,2.20
2018-02-19T03:33:53.673Z,2.25
2018-02-19T03:34:32.646Z,2.24
2018-02-19T03:35:32.668Z,2.27
2018-02-19T03:36:32.641Z,2.24
2018-02-19T03:37:32.685Z,2.28
2018-02-19T03:38:32.759Z,2.27
2018-02-19T03:39:53.645Z,2.30
2018-02-19T03:40:32.631Z,2.34
2018-02-19T03:41:32.628Z,2.21
2018-02-19T03:42:32.632Z,2.18
2018-02-19T03:43:32.632Z,2.25
2018-02-19T03:44:32.631Z,2.18
2018-02-19T03:45:53.648Z,2.21
2018-02-19T03:46:32.623Z,2.23
2018-02-19T03:47:32.625Z,2.20
2018-02-19T03:48:32.621Z,2.24
2018-02-19T03:49:32.620Z,2.23
2018-02-19T03:50:32.670Z,2.25
2018-02-19T03:51:53.632Z,2.24
2018-02-19T03:52:32.647Z,2.30
2018-02-19T03:53:32.617Z,2.24
2018-02-19T03:54:32.610Z,2.25
2018-02-19T03:55:32.598Z,2.23
2018-02-19T03:56:32.597Z,2.27
2018-02-19T03:57:53.601Z,2.21
2018-02-19T03:58:32.598Z,2.17
2018-02-19T03:59:32.593Z,2.18
2018-02-19T04:00:32.590Z,2.18
2018-02-19T04:01:32.592Z,2.16
2018-02-19T04:02:32.578Z,2.09
2018-02-19T04:03:53.593Z,2.10
2018-02-19T04:04:32.594Z,2.12
2018-02-19T04:05:32.590Z,1.98
2018-02-19T04:06:32.591Z,2.16
2018-02-19T04:07:32.574Z,2.07
2018-02-19T04:08:32.610Z,2.10
2018-02-19T04:09:53.590Z,2.07
2018-02-19T04:10:32.564Z,2.12
2018-02-19T04:11:32.568Z,2.17
2018-02-19T04:12:32.582Z,2.10
2018-02-19T04:13:32.568Z,2.09
2018-02-19T04:14:32.559Z,2.10
2018-02-19T04:15:53.573Z,2.18
2018-02-19T04:16:32.558Z,2.09
2018-02-19T04:17:32.637Z,2.12
2018-02-19T04:18:32.540Z,2.12
2018-02-19T04:19:32.545Z,2.14
2018-02-19T04:20:32.544Z,2.09
2018-02-19T04:21:53.550Z,2.12
2018-02-19T04:22:32.556Z,2.07
2018-02-19T04:23:32.533Z,2.12
2018-02-19T04:24:32.535Z,2.07
2018-02-19T04:25:32.529Z,2.05
2018-02-19T04:26:32.522Z,2.14
2018-02-19T04:27:53.524Z,2.12
2018-02-19T04:28:32.517Z,2.09
2018-02-19T04:29:32.529Z,2.12
2018-02-19T04:30:32.509Z,2.10
2018-02-19T04:31:32.509Z,2.16
2018-02-19T04:32:32.520Z,2.14
2018-02-19T04:33:53.511Z,2.10
2018-02-19T04:34:32.537Z,2.06
2018-02-19T04:35:32.495Z,2.09
2018-02-19T04:36:32.496Z,2.16
2018-02-19T04:37:32.573Z,2.03
2018-02-19T04:38:32.494Z,2.12
2018-02-19T04:39:53.625Z,2.02
2018-02-19T04:40:32.477Z,2.09
2018-02-19T04:41:32.474Z,2.10
2018-02-19T04:42:32.490Z,2.12
2018-02-19T04:43:32.477Z,2.09
2018-02-19T04:44:32.474Z,2.16
2018-02-19T04:45:53.475Z,2.10
2018-02-19T04:46:32.460Z,2.12
2018-02-19T04:47:32.466Z,2.10
2018-02-19T04:48:32.476Z,1.99
2018-02-19T04:49:32.470Z,2.06
2018-02-19T04:50:32.484Z,2.18
2018-02-19T04:51:53.492Z,2.03
2018-02-19T04:52:32.451Z,2.17
2018-02-19T04:53:32.463Z,2.07
2018-02-19T04:54:32.441Z,2.20
2018-02-19T04:55:32.437Z,2.14
2018-02-19T04:56:32.447Z,2.20
2018-02-19T04:57:53.462Z,2.10
2018-02-19T04:58:32.448Z,2.06
2018-02-19T04:59:32.439Z,2.14
2018-02-19T05:00:32.464Z,2.12
2018-02-19T05:01:32.443Z,2.09
2018-02-19T05:02:32.454Z,1.95
2018-02-19T05:03:53.434Z,2.12
2018-02-19T05:04:32.427Z,2.14
2018-02-19T05:05:32.517Z,2.03
2018-02-19T05:06:32.419Z,2.10
2018-02-19T05:07:32.410Z,1.95
2018-02-19T05:08:32.413Z,2.02
2018-02-19T05:09:53.604Z,2.06
2018-02-19T05:10:32.418Z,2.10
2018-02-19T05:11:32.395Z,1.99
2018-02-19T05:12:32.403Z,2.14
2018-02-19T05:13:32.396Z,1.98
2018-02-19T05:14:32.393Z,1.88
2018-02-19T05:15:53.428Z,1.84
2018-02-19T05:16:32.388Z,1.81
2018-02-19T05:17:32.394Z,1.91
2018-02-19T05:18:32.495Z,1.95
2018-02-19T05:19:32.397Z,1.95
2018-02-19T05:20:32.389Z,1.93
2018-02-19T05:21:53.392Z,1.93
2018-02-19T05:22:32.381Z,2.03
2018-02-19T05:23:32.365Z,2.03
2018-02-19T05:24:32.368Z,1.95
2018-02-19T05:25:32.365Z,1.86
2018-02-19T05:26:32.383Z,1.93
2018-02-19T05:27:53.383Z,1.87
2018-02-19T05:28:32.350Z,1.93
2018-02-19T05:29:32.386Z,1.95
2018-02-19T05:30:32.352Z,1.90
2018-02-19T05:31:32.349Z,1.98
2018-02-19T05:32:32.342Z,2.02
2018-02-19T05:33:53.370Z,1.95
2018-02-19T05:34:32.463Z,2.03
2018-02-19T05:35:32.381Z,2.07
2018-02-19T05:36:32.362Z,2.10
2018-02-19T05:37:32.357Z,2.14
2018-02-19T05:38:32.332Z,2.00
2018-02-19T05:39:53.342Z,2.09
2018-02-19T05:40:32.437Z,2.07
2018-02-19T05:41:32.334Z,1.99
2018-02-19T05:42:32.314Z,2.02
2018-02-19T05:43:32.309Z,2.05
2018-02-19T05:44:32.312Z,2.02
2018-02-19T05:45:53.317Z,1.95
2018-02-19T05:46:32.328Z,1.99
2018-02-19T05:47:32.329Z,1.98
2018-02-19T05:48:32.340Z,1.98
2018-02-19T05:49:32.341Z,1.88
2018-02-19T05:50:32.308Z,2.00
2018-02-19T05:51:53.319Z,2.05
2018-02-19T05:52:32.321Z,1.98
2018-02-19T05:53:32.304Z,1.91
2018-02-19T05:54:32.297Z,2.02
2018-02-19T05:55:32.292Z,2.06
2018-02-19T05:56:32.287Z,1.98
2018-02-19T05:57:53.292Z,1.93
2018-02-19T05:58:32.289Z,2.07
2018-02-19T05:59:32.321Z,2.06
2018-02-19T06:00:32.299Z,1.95
2018-02-19T06:01:32.305Z,1.95
2018-02-19T06:02:32.287Z,1.99
2018-02-19T06:03:53.275Z,1.91
2018-02-19T06:04:32.285Z,1.87
2018-02-19T06:05:33.012Z,1.84
2018-02-19T06:06:32.283Z,1.95
2018-02-19T06:07:32.254Z,1.88
2018-02-19T06:08:32.291Z,1.98
2018-02-19T06:09:54.013Z,1.86
2018-02-19T06:10:32.237Z,1.87
2018-02-19T06:11:32.242Z,1.88
2018-02-19T06:12:32.234Z,1.88
2018-02-19T06:13:32.245Z,1.86
2018-02-19T06:14:32.236Z,2.00
2018-02-19T06:15:53.236Z,2.03
2018-02-19T06:16:32.229Z,1.98
2018-02-19T06:17:32.235Z,2.07
2018-02-19T06:18:32.253Z,1.95
2018-02-19T06:19:32.218Z,2.02
2018-02-19T06:20:32.229Z,1.93
2018-02-19T06:21:53.222Z,2.05
2018-02-19T06:22:32.212Z,2.02
2018-02-19T06:23:32.221Z,2.09
2018-02-19T06:24:32.231Z,2.00
2018-02-19T06:25:32.205Z,2.03
2018-02-19T06:26:32.229Z,1.99
2018-02-19T06:27:53.204Z,2.10
2018-02-19T06:28:32.216Z,2.05
2018-02-19T06:29:32.196Z,2.03
2018-02-19T06:30:32.249Z,2.12
2018-02-19T06:31:32.197Z,2.09
2018-02-19T06:32:32.192Z,1.91
2018-02-19T06:33:53.207Z,2.14
2018-02-19T06:34:32.257Z,2.09
2018-02-19T06:35:32.188Z,2.06
2018-02-19T06:36:32.210Z,2.09
2018-02-19T06:37:32.181Z,2.05
2018-02-19T06:38:32.188Z,1.93
2018-02-19T06:39:53.188Z,2.00
2018-02-19T06:40:32.169Z,1.99
2018-02-19T06:41:32.289Z,1.95
2018-02-19T06:42:32.174Z,1.84
2018-02-19T06:43:32.184Z,1.99
2018-02-19T06:44:32.162Z,1.80
2018-02-19T06:45:53.174Z,1.84
2018-02-19T06:46:32.174Z,1.93
2018-02-19T06:47:32.171Z,1.93
2018-02-19T06:48:32.952Z,2.02
2018-02-19T06:49:32.154Z,2.09
2018-02-19T06:50:32.148Z,2.00
2018-02-19T06:51:53.174Z,1.95
2018-02-19T06:52:32.335Z,2.18
2018-02-19T06:53:32.152Z,2.07
2018-02-19T06:54:32.149Z,2.07
2018-02-19T06:55:32.146Z,2.07
2018-02-19T06:56:32.131Z,1.98
2018-02-19T06:57:53.172Z,2.05
2018-02-19T06:58:32.192Z,1.98
2018-02-19T06:59:32.141Z,2.16
2018-02-19T07:00:32.140Z,1.93
2018-02-19T07:01:33.035Z,2.03
2018-02-19T07:02:32.118Z,2.14
2018-02-19T07:03:53.134Z,2.14
2018-02-19T07:04:32.129Z,1.95
2018-02-19T07:05:32.216Z,2.05
2018-02-19T07:06:32.106Z,2.12
2018-02-19T07:07:32.104Z,2.12
2018-02-19T07:08:32.125Z,2.12
2018-02-19T07:09:54.037Z,2.07
2018-02-19T07:10:32.101Z,1.99
2018-02-19T07:11:32.088Z,2.14
2018-02-19T07:12:32.096Z,2.07
2018-02-19T07:13:32.366Z,2.17
2018-02-19T07:14:32.729Z,2.20
2018-02-19T07:15:54.106Z,2.10
2018-02-19T07:16:32.832Z,2.10
2018-02-19T07:17:32.403Z,2.12
2018-02-19T07:18:35.574Z,2.10
2018-02-19T07:19:32.745Z,2.09
2018-02-19T07:20:35.161Z,2.12
2018-02-19T07:21:53.294Z,2.10
2018-02-19T07:22:32.063Z,1.99
2018-02-19T07:23:36.450Z,2.06
2018-02-19T07:24:32.572Z,2.20
2018-02-19T07:25:32.618Z,2.17
2018-02-19T07:26:32.371Z,2.20
2018-02-19T07:27:54.893Z,2.20
2018-02-19T07:28:33.090Z,2.23
2018-02-19T07:29:32.938Z,2.34
2018-02-19T07:30:32.236Z,2.27
2018-02-19T07:31:32.937Z,2.28
2018-02-19T07:32:32.201Z,2.31
2018-02-19T07:33:53.866Z,2.20
2018-02-19T07:34:32.637Z,2.36
2018-02-19T07:35:32.157Z,2.39
2018-02-19T07:36:32.359Z,2.39
2018-02-19T07:37:32.392Z,2.41
2018-02-19T07:38:32.583Z,2.52
2018-02-19T07:39:53.570Z,2.45
2018-02-19T07:40:32.252Z,2.59
2018-02-19T07:41:32.154Z,2.64
2018-02-19T07:42:32.604Z,2.79
2018-02-19T07:43:33.978Z,2.82
2018-02-19T07:44:33.472Z,2.81
2018-02-19T07:45:53.518Z,2.93
2018-02-19T07:46:32.384Z,2.77
2018-02-19T07:47:32.333Z,2.81
2018-02-19T07:48:32.260Z,2.92
2018-02-19T07:49:32.717Z,2.90
2018-02-19T07:50:32.111Z,2.92
2018-02-19T07:51:53.151Z,2.87
2018-02-19T07:52:32.407Z,2.99
2018-02-19T07:55:04.106Z,3.10
2018-02-19T07:56:04.963Z,3.21
2018-02-19T07:57:59.004Z,3.31
2018-02-19T07:59:01.380Z,3.65
2018-02-19T07:59:57.970Z,3.70
2018-02-19T08:00:57.816Z,3.48
2018-02-19T08:01:57.724Z,3.51
2018-02-19T08:02:57.575Z,3.68
2018-02-19T08:03:57.692Z,3.62
2018-02-19T08:04:57.807Z,3.35
2018-02-19T08:05:57.575Z,3.32
2018-02-19T08:06:57.563Z,3.60
2018-02-19T08:07:57.585Z,3.79
2018-02-19T08:08:57.652Z,3.75
2018-02-19T08:09:58.006Z,3.86
2018-02-19T08:10:57.917Z,3.79
2018-02-19T08:13:30.246Z,3.79
2018-02-19T08:14:30.044Z,3.65
2018-02-19T08:15:30.032Z,3.75
2018-02-19T08:16:30.241Z,3.79
2018-02-19T08:17:30.099Z,3.78
2018-02-19T08:18:30.116Z,3.69
2018-02-19T08:19:30.010Z,3.57
2018-02-19T08:20:30.228Z,3.48
2018-02-19T08:22:30.738Z,3.51
2018-02-19T08:25:02.900Z,3.68
2018-02-19T08:26:03.750Z,3.66
2018-02-19T08:28:44.579Z,3.73
2018-02-19T08:29:37.444Z,3.65
2018-02-19T08:30:36.059Z,3.69
2018-02-19T08:31:36.569Z,3.90
2018-02-19T08:32:35.666Z,3.93
2018-02-19T08:33:35.791Z,4.42
2018-02-19T08:34:35.761Z,4.75
2018-02-19T08:35:36.467Z,4.80
2018-02-19T08:36:35.768Z,5.17
2018-02-19T08:37:35.738Z,5.51
2018-02-19T08:38:35.771Z,5.35
2018-02-19T08:39:35.933Z,5.56
2018-02-19T08:40:35.809Z,5.53
2018-02-19T08:41:36.464Z,5.61
2018-02-19T08:42:36.173Z,5.72
2018-02-19T08:43:36.102Z,5.68
2018-02-19T08:47:40.892Z,5.03
2018-02-19T08:48:40.919Z,5.20
2018-02-19T08:49:41.573Z,5.38
2018-02-19T08:50:46.913Z,5.15
2018-02-19T08:51:42.576Z,5.27
2018-02-19T08:52:40.887Z,5.06
2018-02-19T08:53:41.680Z,5.09
2018-02-19T08:54:41.677Z,4.92
2018-02-19T08:55:40.994Z,4.88
2018-02-19T08:56:40.847Z,4.88
2018-02-19T08:57:40.849Z,5.15
2018-02-19T08:58:40.847Z,5.24
2018-02-19T08:59:40.836Z,5.39
2018-02-19T09:00:41.676Z,5.48
2018-02-19T09:01:40.840Z,5.49
2018-02-19T09:02:40.799Z,5.89
2018-02-19T09:03:40.852Z,5.96
2018-02-19T09:04:40.783Z,5.99
2018-02-19T09:05:40.791Z,5.86
2018-02-19T09:06:40.784Z,5.17
2018-02-19T09:07:41.678Z,5.22
2018-02-19T09:08:41.680Z,5.20
2018-02-19T09:09:40.923Z,5.42
2018-02-19T09:10:40.819Z,5.20
2018-02-19T09:11:40.821Z,5.10
2018-02-19T09:12:40.845Z,5.03
2018-02-19T09:13:41.683Z,4.85
2018-02-19T09:14:40.963Z,4.54
2018-02-19T09:15:40.860Z,4.59
2018-02-19T09:16:40.843Z,4.78
2018-02-19T09:17:41.680Z,4.60
2018-02-19T09:18:40.803Z,4.51
2018-02-19T09:19:40.783Z,4.85
2018-02-19T09:20:40.788Z,4.69
2018-02-19T09:21:40.837Z,4.54
2018-02-19T09:22:40.865Z,4.84
2018-02-19T09:23:41.684Z,4.91
2018-02-19T09:24:40.853Z,4.86
2018-02-19T09:25:40.860Z,4.44
2018-02-19T09:26:40.932Z,4.55
2018-02-19T09:27:40.814Z,4.70
2018-02-19T09:28:40.882Z,5.21
2018-02-19T09:29:40.858Z,5.38
2018-02-19T09:30:40.868Z,5.30
2018-02-19T09:31:41.680Z,5.13
2018-02-19T09:32:40.787Z,5.12
2018-02-19T09:33:40.827Z,5.21
2018-02-19T09:34:40.887Z,5.99
2018-02-19T09:35:40.852Z,7.16
2018-02-19T09:36:40.874Z,7.85
2018-02-19T09:37:40.906Z,8.48
2018-02-19T09:38:40.853Z,8.05
2018-02-19T09:39:40.896Z,8.74
2018-02-19T09:40:41.816Z,8.92
2018-02-19T09:41:40.820Z,9.54
2018-02-19T09:42:40.800Z,9.87
2018-02-19T09:43:41.683Z,9.69
2018-02-19T09:44:41.690Z,8.59
2018-02-19T09:45:40.864Z,8.37
2018-02-19T09:46:40.875Z,8.61
2018-02-19T09:47:40.912Z,8.34
2018-02-19T09:48:40.891Z,7.86
2018-02-19T09:49:40.849Z,7.52
2018-02-19T09:50:40.808Z,7.12
2018-02-19T09:51:40.830Z,7.34
2018-02-19T09:52:40.833Z,8.28
2018-02-19T09:53:41.780Z,8.98
2018-02-19T09:54:40.831Z,9.56
2018-02-19T09:55:40.875Z,9.11
2018-02-19T09:56:40.909Z,7.68
2018-02-19T09:57:40.926Z,8.23
2018-02-19T09:58:40.860Z,8.71
2018-02-19T09:59:40.905Z,8.37
2018-02-19T10:00:40.882Z,8.36
2018-02-19T10:01:47.856Z,7.60
2018-02-19T10:02:41.069Z,7.58
2018-02-19T10:03:40.896Z,8.01
2018-02-19T10:04:41.039Z,8.07
2018-02-19T10:05:41.158Z,7.87
2018-02-19T10:06:40.859Z,7.92
2018-02-19T10:07:40.900Z,8.34
2018-02-19T10:08:40.897Z,8.47
2018-02-19T10:09:40.899Z,8.58
2018-02-19T10:10:41.695Z,8.36
2018-02-19T10:11:40.925Z,8.00
2018-02-19T10:12:40.865Z,7.10
2018-02-19T10:13:40.962Z,7.23
2018-02-19T10:14:40.968Z,7.50
2018-02-19T10:15:40.887Z,7.10
2018-02-19T10:16:40.960Z,6.74
2018-02-19T10:17:40.990Z,6.71
2018-02-19T10:18:41.021Z,6.43
2018-02-19T10:19:40.980Z,6.49
2018-02-19T10:20:40.997Z,6.81
2018-02-19T10:21:41.049Z,6.85
2018-02-19T10:22:40.918Z,6.58
2018-02-19T10:23:41.016Z,7.03
2018-02-19T10:24:41.048Z,6.89
2018-02-19T10:25:40.935Z,6.85
2018-02-19T10:26:41.000Z,7.02
2018-02-19T10:27:40.975Z,6.94
2018-02-19T10:28:40.988Z,7.39
2018-02-19T10:29:41.005Z,6.81
2018-02-19T10:30:40.983Z,6.77
2018-02-19T10:31:41.103Z,7.13
2018-02-19T10:32:41.102Z,7.06
2018-02-19T10:33:41.098Z,6.79
2018-02-19T10:34:41.007Z,6.98
2018-02-19T10:35:41.008Z,7.20
2018-02-19T10:36:40.974Z,7.25
2018-02-19T10:37:40.998Z,7.28
2018-02-19T10:38:40.990Z,7.46
2018-02-19T10:39:40.982Z,7.82
2018-02-19T10:40:40.951Z,7.93
2018-02-19T10:41:41.709Z,7.74
2018-02-19T10:42:40.953Z,7.49
2018-02-19T10:43:41.038Z,7.86
2018-02-19T10:44:41.050Z,8.02
2018-02-19T10:45:40.990Z,7.71
2018-02-19T10:46:40.984Z,7.67
2018-02-19T10:47:40.997Z,7.52
2018-02-19T10:48:41.009Z,7.40
2018-02-19T10:49:41.055Z,7.27
2018-02-19T10:50:41.028Z,6.54
2018-02-19T10:51:41.015Z,6.88
2018-02-19T10:52:41.032Z,7.34
2018-02-19T10:53:41.025Z,7.16
2018-02-19T10:54:41.030Z,6.81
2018-02-19T10:55:41.037Z,7.07
2018-02-19T10:56:41.042Z,6.97
2018-02-19T10:57:41.035Z,6.91
2018-02-19T10:58:41.016Z,6.84
2018-02-19T10:59:41.018Z,6.85
2018-02-19T11:00:41.075Z,6.58
2018-02-19T11:01:41.025Z,6.33
2018-02-19T11:02:41.038Z,6.67
2018-02-19T11:03:41.090Z,7.06
2018-02-19T11:04:41.015Z,7.13
2018-02-19T11:05:41.017Z,7.15
2018-02-19T11:06:41.172Z,6.56
2018-02-19T11:07:41.048Z,6.56
2018-02-19T11:08:41.037Z,6.77
2018-02-19T11:09:41.046Z,6.77
2018-02-19T11:10:41.056Z,7.09
2018-02-19T11:11:41.060Z,7.10
2018-02-19T11:12:41.113Z,7.03
2018-02-19T11:13:41.030Z,7.20
2018-02-19T11:14:41.079Z,7.43
2018-02-19T11:15:41.202Z,7.35
2018-02-19T11:16:41.049Z,7.39
2018-02-19T11:17:41.091Z,7.48
2018-02-19T11:18:41.050Z,7.42
2018-02-19T11:19:41.723Z,7.24
2018-02-19T11:20:41.036Z,7.09
2018-02-19T11:21:41.032Z,7.20
2018-02-19T11:22:41.062Z,6.99
2018-02-19T11:23:41.076Z,7.03
2018-02-19T11:24:41.106Z,6.97
2018-02-19T11:25:41.190Z,6.87
2018-02-19T11:26:41.256Z,6.88
2018-02-19T11:27:41.139Z,6.89
2018-02-19T11:28:41.167Z,7.06
2018-02-19T11:29:41.122Z,7.13
2018-02-19T11:30:41.097Z,7.13
2018-02-19T11:31:41.102Z,6.85
2018-02-19T11:32:41.059Z,6.80
2018-02-19T11:33:41.123Z,6.30
2018-02-19T11:34:41.146Z,6.34
2018-02-19T11:35:41.070Z,6.59
2018-02-19T11:36:41.062Z,6.74
2018-02-19T11:37:41.727Z,5.85
2018-02-19T11:38:41.162Z,6.17
2018-02-19T11:39:41.069Z,6.21
2018-02-19T11:40:41.134Z,6.59
2018-02-19T11:41:41.084Z,6.84
2018-02-19T11:42:41.160Z,6.71
2018-02-19T11:43:41.207Z,6.98
2018-02-19T11:44:41.134Z,6.79
2018-02-19T11:45:41.129Z,6.58
2018-02-19T11:46:41.141Z,6.87
2018-02-19T11:47:41.113Z,6.76
2018-02-19T11:48:41.132Z,6.48
2018-02-19T11:49:41.120Z,6.79
2018-02-19T11:50:41.133Z,6.69
2018-02-19T11:51:41.134Z,6.87
2018-02-19T11:52:41.143Z,6.99
2018-02-19T11:53:41.949Z,7.20
2018-02-19T11:54:41.157Z,7.43
2018-02-19T11:55:41.171Z,7.48
2018-02-19T11:56:41.731Z,7.71
2018-02-19T11:57:41.166Z,7.31
2018-02-19T11:58:41.902Z,7.39
2018-02-19T11:59:41.175Z,7.50
2018-02-19T12:00:41.197Z,7.89
2018-02-19T12:01:41.158Z,7.87
2018-02-19T12:02:41.196Z,7.40
2018-02-19T12:03:41.142Z,7.35
2018-02-19T12:04:41.174Z,7.45
2018-02-19T12:05:41.170Z,7.23
2018-02-19T12:06:41.161Z,7.28
2018-02-19T12:07:41.178Z,7.23
2018-02-19T12:08:41.197Z,7.43
2018-02-19T12:09:41.174Z,7.32
2018-02-19T12:10:41.121Z,7.20
2018-02-19T12:11:41.187Z,7.23
2018-02-19T12:12:41.178Z,7.28
2018-02-19T12:13:41.220Z,7.23
2018-02-19T12:14:41.147Z,7.46
2018-02-19T12:15:41.189Z,7.48
2018-02-19T12:16:41.135Z,7.52
2018-02-19T12:17:41.188Z,7.71
2018-02-19T12:18:41.230Z,7.89
2018-02-19T12:19:42.231Z,7.83
2018-02-19T12:20:41.166Z,7.86
2018-02-19T12:21:41.935Z,7.79
2018-02-19T12:22:41.192Z,7.53
2018-02-19T12:23:41.193Z,7.39
2018-02-19T12:24:41.171Z,7.37
2018-02-19T12:25:41.192Z,6.99
2018-02-19T12:26:41.233Z,6.79
2018-02-19T12:27:41.240Z,6.80
2018-02-19T12:28:41.909Z,6.87
2018-02-19T12:29:41.299Z,6.80
2018-02-19T12:30:41.227Z,6.43
2018-02-19T12:31:41.246Z,6.81
2018-02-19T12:32:41.254Z,6.79
2018-02-19T12:33:41.239Z,6.81
2018-02-19T12:34:41.227Z,6.34
2018-02-19T12:35:41.252Z,6.14
2018-02-19T12:36:41.234Z,6.38
2018-02-19T12:37:41.395Z,6.59
2018-02-19T12:38:41.203Z,7.02
2018-02-19T12:39:41.365Z,7.02
2018-02-19T12:40:41.182Z,6.92
2018-02-19T12:41:41.177Z,6.98
2018-02-19T12:42:41.267Z,6.97
2018-02-19T12:43:41.238Z,6.77
2018-02-19T12:44:41.243Z,6.61
2018-02-19T12:45:41.552Z,6.46
2018-02-19T12:46:41.260Z,6.62
2018-02-19T12:47:41.256Z,6.91
2018-02-19T12:48:41.324Z,6.88
2018-02-19T12:49:41.264Z,6.89
2018-02-19T12:50:41.458Z,6.95
2018-02-19T12:51:41.269Z,7.12
2018-02-19T12:52:41.245Z,6.77
2018-02-19T12:53:41.264Z,6.79
2018-02-19T12:54:41.256Z,6.88
2018-02-19T12:55:41.223Z,7.03
2018-02-19T12:56:41.224Z,6.94
2018-02-19T12:57:41.235Z,7.20
2018-02-19T12:58:41.229Z,7.31
2018-02-19T12:59:41.388Z,7.24
2018-02-19T13:00:41.301Z,7.21
2018-02-19T13:01:41.382Z,7.42
2018-02-19T13:02:41.270Z,7.45
2018-02-19T13:03:42.292Z,7.28
2018-02-19T13:04:41.403Z,7.31
2018-02-19T13:05:41.664Z,7.09
2018-02-19T13:06:41.265Z,7.23
2018-02-19T13:07:41.254Z,6.77
2018-02-19T13:08:41.299Z,6.73
2018-02-19T13:09:41.401Z,7.03
2018-02-19T13:10:41.315Z,7.21
2018-02-19T13:11:41.290Z,7.32
2018-02-19T13:12:41.328Z,7.09
2018-02-19T13:13:41.422Z,7.20
2018-02-19T13:14:41.327Z,7.40
2018-02-19T13:15:41.237Z,7.60
2018-02-19T13:16:41.760Z,7.68
2018-02-19T13:17:41.312Z,7.75
2018-02-19T13:18:41.763Z,7.69
2018-02-19T13:19:41.452Z,7.71
2018-02-19T13:20:41.365Z,7.74
2018-02-19T13:21:41.554Z,7.67
2018-02-19T13:22:41.265Z,7.80
2018-02-19T13:23:41.303Z,7.69
2018-02-19T13:24:41.410Z,7.46
2018-02-19T13:25:41.384Z,7.49
2018-02-19T13:26:41.387Z,7.50
2018-02-19T13:27:41.315Z,7.80
2018-02-19T13:28:41.748Z,7.80
2018-02-19T13:29:41.361Z,7.57